createdAt,value
2019-03-15T00:01:07.225Z,11.30
2019-03-15T00:03:35.946Z,11.30
2019-03-15T00:06:04.406Z,11.30
2019-03-15T00:08:33.078Z,11.30
2019-03-15T00:11:01.596Z,11.30
2019-03-15T00:13:30.255Z,11.30
2019-03-15T00:15:58.529Z,11.30
2019-03-15T00:18:27.234Z,11.30
2019-03-15T00:20:55.794Z,11.30
2019-03-15T00:23:24.653Z,11.30
2019-03-15T00:25:55.327Z,11.30
2019-03-15T00:28:24.211Z,11.30
2019-03-15T00:30:52.976Z,11.30
2019-03-15T00:33:21.606Z,11.30
2019-03-15T00:35:50.257Z,11.30
2019-03-15T00:38:19.539Z,11.30
2019-03-15T00:40:48.271Z,11.30
2019-03-15T00:43:17.330Z,11.30
2019-03-15T00:45:46.038Z,11.30
2019-03-15T00:48:14.737Z,11.30
2019-03-15T00:50:43.090Z,11.30
2019-03-15T00:53:11.674Z,11.30
2019-03-15T00:55:40.387Z,11.30
2019-03-15T00:58:09.041Z,11.30
2019-03-15T01:00:37.525Z,11.30
2019-03-15T01:03:05.938Z,11.30
2019-03-15T01:05:35.215Z,11.30
2019-03-15T01:08:03.990Z,11.30
2019-03-15T01:10:33.754Z,11.30
2019-03-15T01:13:02.189Z,11.30
2019-03-15T01:15:30.862Z,11.30
2019-03-15T01:17:59.171Z,11.30
2019-03-15T01:20:27.821Z,11.30
2019-03-15T01:22:56.091Z,11.30
2019-03-15T01:25:24.822Z,11.30
2019-03-15T01:27:53.177Z,11.30
2019-03-15T01:30:21.569Z,11.30
2019-03-15T01:32:50.263Z,11.30
2019-03-15T01:35:18.911Z,11.30
2019-03-15T01:37:47.598Z,11.30
2019-03-15T01:40:16.335Z,11.30
2019-03-15T01:42:44.664Z,11.30
2019-03-15T01:45:13.253Z,11.30
2019-03-15T01:47:41.967Z,11.30
2019-03-15T01:50:10.618Z,11.30
2019-03-15T01:52:39.310Z,11.30
2019-03-15T01:55:08.018Z,11.30
2019-03-15T01:57:36.677Z,11.30
2019-03-15T02:00:06.062Z,11.30
2019-03-15T02:02:34.893Z,11.30
2019-03-15T02:05:03.553Z,11.30
2019-03-15T02:07:32.734Z,11.30
2019-03-15T02:10:01.366Z,11.30
2019-03-15T02:12:30.013Z,11.30
2019-03-15T02:14:58.499Z,11.30
2019-03-15T02:17:27.220Z,11.30
2019-03-15T02:19:55.861Z,11.30
2019-03-15T02:22:24.349Z,11.30
2019-03-15T02:24:52.767Z,11.30
2019-03-15T02:27:21.514Z,11.30
2019-03-15T02:29:50.205Z,11.30
2019-03-15T02:32:18.920Z,11.30
2019-03-15T02:34:47.570Z,11.30
2019-03-15T02:37:16.253Z,11.30
2019-03-15T02:39:46.079Z,11.30
2019-03-15T02:42:14.755Z,11.30
2019-03-15T02:44:43.227Z,11.30
2019-03-15T02:47:12.052Z,11.30
2019-03-15T02:49:40.708Z,11.30
2019-03-15T02:52:09.389Z,11.30
2019-03-15T02:54:38.107Z,11.30
2019-03-15T02:57:08.749Z,11.30
2019-03-15T02:59:37.522Z,11.30
2019-03-15T03:02:05.841Z,11.30
2019-03-15T03:04:34.465Z,11.30
2019-03-15T03:07:03.137Z,11.30
2019-03-15T03:09:31.853Z,11.30
2019-03-15T03:12:00.305Z,11.30
2019-03-15T03:14:28.995Z,11.30
2019-03-15T03:16:57.523Z,11.30
2019-03-15T03:19:25.859Z,11.30
2019-03-15T03:21:54.686Z,11.30
2019-03-15T03:24:24.540Z,11.30
2019-03-15T03:26:53.233Z,11.30
2019-03-15T03:29:22.044Z,11.30
2019-03-15T03:31:50.656Z,11.30
2019-03-15T03:34:19.512Z,11.30
2019-03-15T03:36:48.188Z,11.30
2019-03-15T03:39:16.623Z,11.30
2019-03-15T03:41:45.373Z,11.30
2019-03-15T03:44:13.642Z,11.30
2019-03-15T03:46:42.150Z,11.30
2019-03-15T03:49:10.805Z,11.30
2019-03-15T03:51:39.449Z,11.30
2019-03-15T03:54:08.225Z,11.30
2019-03-15T03:56:36.869Z,11.30
2019-03-15T03:59:05.545Z,11.30
2019-03-15T04:01:34.268Z,11.40
2019-03-15T04:04:02.903Z,11.30
2019-03-15T04:06:31.582Z,11.40
2019-03-15T04:09:00.331Z,11.40
2019-03-15T04:11:28.663Z,11.30
2019-03-15T04:13:57.155Z,11.40
2019-03-15T04:16:25.565Z,11.40
2019-03-15T04:18:54.194Z,11.40
2019-03-15T04:21:22.879Z,11.40
2019-03-15T04:23:51.605Z,11.40
2019-03-15T04:26:20.260Z,11.40
2019-03-15T04:28:48.946Z,11.40
2019-03-15T04:31:17.675Z,11.40
2019-03-15T04:33:46.107Z,11.40
2019-03-15T04:36:14.997Z,11.40
2019-03-15T04:38:43.505Z,11.40
2019-03-15T04:41:11.890Z,11.40
2019-03-15T04:43:40.644Z,11.40
2019-03-15T04:46:09.363Z,11.40
2019-03-15T04:48:38.012Z,11.40
2019-03-15T04:51:06.723Z,11.40
2019-03-15T04:53:35.111Z,11.40
2019-03-15T04:56:03.258Z,11.40
2019-03-15T04:58:31.943Z,11.40
2019-03-15T05:01:00.665Z,11.40
2019-03-15T05:03:29.516Z,11.40
2019-03-15T05:06:03.093Z,11.40
2019-03-15T05:08:28.158Z,11.40
2019-03-15T05:10:57.020Z,11.40
2019-03-15T05:13:25.698Z,11.40
2019-03-15T05:15:54.632Z,11.40
2019-03-15T05:18:23.261Z,11.40
2019-03-15T05:20:51.966Z,11.40
2019-03-15T05:23:20.705Z,11.40
2019-03-15T05:25:49.333Z,11.40
2019-03-15T05:28:18.226Z,11.40
2019-03-15T05:30:46.748Z,11.40
2019-03-15T05:33:15.070Z,11.40
2019-03-15T05:35:43.461Z,11.40
2019-03-15T05:38:12.175Z,11.40
2019-03-15T05:40:40.825Z,11.40
2019-03-15T05:43:09.516Z,11.40
2019-03-15T05:45:38.229Z,11.40
2019-03-15T05:48:07.742Z,11.40
2019-03-15T05:50:36.004Z,11.30
2019-03-15T05:53:04.714Z,11.30
2019-03-15T05:55:33.322Z,11.40
2019-03-15T05:58:02.045Z,11.30
2019-03-15T06:00:31.230Z,11.30
2019-03-15T06:03:00.018Z,11.40
2019-03-15T06:05:29.103Z,11.40
2019-03-15T06:07:57.407Z,11.30
2019-03-15T06:10:26.081Z,11.40
2019-03-15T06:12:54.750Z,11.40
2019-03-15T06:15:23.499Z,11.40
2019-03-15T06:17:52.146Z,11.40
2019-03-15T06:20:20.822Z,11.40
2019-03-15T06:22:49.746Z,11.30
2019-03-15T06:25:18.186Z,11.30
2019-03-15T06:27:46.872Z,11.30
2019-03-15T06:30:15.586Z,11.30
2019-03-15T06:32:44.096Z,11.30
2019-03-15T06:35:12.733Z,11.30
2019-03-15T06:37:41.454Z,11.40
2019-03-15T06:40:13.319Z,11.30
2019-03-15T06:42:40.423Z,11.30
2019-03-15T06:45:09.570Z,11.30
2019-03-15T06:47:37.993Z,11.30
2019-03-15T06:50:06.942Z,11.30
2019-03-15T06:52:35.362Z,11.30
2019-03-15T06:55:05.474Z,11.30
2019-03-15T06:57:39.737Z,11.30
2019-03-15T07:00:08.572Z,11.30
2019-03-15T07:02:37.062Z,11.30
2019-03-15T07:05:05.576Z,11.40
2019-03-15T07:07:34.029Z,11.40
2019-03-15T07:10:02.796Z,11.40
2019-03-15T07:12:31.219Z,11.40
2019-03-15T07:14:59.666Z,11.40
2019-03-15T07:17:27.963Z,11.40
2019-03-15T07:19:56.575Z,11.40
2019-03-15T07:22:25.012Z,11.40
2019-03-15T07:24:53.806Z,11.50
2019-03-15T07:27:22.526Z,11.50
2019-03-15T07:29:51.182Z,11.50
2019-03-15T07:32:19.847Z,11.50
2019-03-15T07:34:48.264Z,11.50
2019-03-15T07:37:16.729Z,11.50
2019-03-15T07:39:45.552Z,11.60
2019-03-15T07:42:14.234Z,11.60
2019-03-15T07:44:43.280Z,11.60
2019-03-15T07:47:11.668Z,11.60
2019-03-15T07:49:40.091Z,11.60
2019-03-15T07:52:08.933Z,11.60
2019-03-15T07:54:38.988Z,11.70
2019-03-15T07:57:08.715Z,11.70
2019-03-15T07:59:38.026Z,11.70
2019-03-15T08:02:06.850Z,11.80
2019-03-15T08:04:36.109Z,11.80
2019-03-15T08:07:04.697Z,11.80
2019-03-15T08:09:34.724Z,11.80
2019-03-15T08:12:04.766Z,11.90
2019-03-15T08:14:36.362Z,11.90
2019-03-15T08:17:06.370Z,11.90
2019-03-15T08:19:38.380Z,11.90
2019-03-15T08:22:10.433Z,11.90
2019-03-15T08:24:51.463Z,12.00
2019-03-15T08:27:16.078Z,12.00
2019-03-15T08:29:46.696Z,12.00
2019-03-15T08:32:16.774Z,12.00
2019-03-15T08:34:46.050Z,12.00
2019-03-15T08:37:16.091Z,12.10
2019-03-15T08:39:45.875Z,12.10
2019-03-15T08:42:16.868Z,12.10
2019-03-15T08:44:46.625Z,12.20
2019-03-15T08:47:16.744Z,12.20
2019-03-15T08:49:46.495Z,12.20
2019-03-15T08:52:16.556Z,12.30
2019-03-15T08:54:46.762Z,12.20
2019-03-15T08:57:17.914Z,12.30
2019-03-15T08:59:56.855Z,12.30
2019-03-15T09:02:19.814Z,12.30
2019-03-15T09:04:50.450Z,12.30
2019-03-15T09:07:18.589Z,12.30
2019-03-15T09:09:47.808Z,12.40
2019-03-15T09:12:16.459Z,12.40
2019-03-15T09:14:45.493Z,12.40
2019-03-15T09:17:14.072Z,12.40
2019-03-15T09:19:42.715Z,12.50
2019-03-15T09:22:11.699Z,12.50
2019-03-15T09:24:40.348Z,12.50
2019-03-15T09:27:10.490Z,12.50
2019-03-15T09:29:39.300Z,12.60
2019-03-15T09:32:09.315Z,12.60
2019-03-15T09:34:39.448Z,12.60
2019-03-15T09:37:08.008Z,12.60
2019-03-15T09:39:36.726Z,12.70
2019-03-15T09:42:05.605Z,12.70
2019-03-15T09:44:37.315Z,12.70
2019-03-15T09:47:04.867Z,12.70
2019-03-15T09:49:33.508Z,12.70
2019-03-15T09:52:01.979Z,12.80
2019-03-15T09:54:30.705Z,12.80
2019-03-15T09:56:59.272Z,12.80
2019-03-15T09:59:28.127Z,12.90
2019-03-15T10:01:56.950Z,12.90
2019-03-15T10:04:25.812Z,12.90
2019-03-15T10:06:54.739Z,12.90
2019-03-15T10:09:23.421Z,13.00
2019-03-15T10:11:52.084Z,13.00
2019-03-15T10:14:20.771Z,13.10
2019-03-15T10:17:08.145Z,13.10
2019-03-15T10:19:40.029Z,13.10
2019-03-15T10:22:08.969Z,13.20
2019-03-15T10:24:37.632Z,13.20
2019-03-15T10:27:06.107Z,13.20
2019-03-15T10:29:35.039Z,13.30
2019-03-15T10:32:03.695Z,13.40
2019-03-15T10:34:35.536Z,13.40
2019-03-15T10:37:06.036Z,13.50
2019-03-15T10:39:35.060Z,13.50
2019-03-15T10:42:03.788Z,13.50
2019-03-15T10:44:32.434Z,13.60
2019-03-15T10:47:00.918Z,13.60
2019-03-15T10:49:30.969Z,13.60
2019-03-15T10:52:00.743Z,13.70
2019-03-15T10:54:29.376Z,13.70
2019-03-15T10:56:58.147Z,13.70
2019-03-15T10:59:26.791Z,13.70
2019-03-15T11:01:55.730Z,13.80
2019-03-15T11:04:24.587Z,13.80
2019-03-15T11:06:53.468Z,13.90
2019-03-15T11:09:21.990Z,14.00
2019-03-15T11:11:50.546Z,14.00
2019-03-15T11:14:19.383Z,14.10
2019-03-15T11:16:48.040Z,14.20
2019-03-15T11:19:16.686Z,14.20
2019-03-15T11:21:45.371Z,14.20
2019-03-15T11:24:13.809Z,14.20
2019-03-15T11:26:42.536Z,14.30
2019-03-15T11:29:10.928Z,14.30
2019-03-15T11:31:39.335Z,14.30
2019-03-15T11:34:07.883Z,14.30
2019-03-15T11:36:36.677Z,14.30
2019-03-15T11:39:07.175Z,14.40
2019-03-15T11:41:35.571Z,14.40
2019-03-15T11:44:04.360Z,14.40
2019-03-15T11:46:33.105Z,14.40
2019-03-15T11:49:01.945Z,14.50
2019-03-15T11:51:30.609Z,14.60
2019-03-15T11:53:59.330Z,14.60
2019-03-15T11:56:27.982Z,14.60
2019-03-15T11:58:56.680Z,14.70
2019-03-15T12:01:25.396Z,14.70
2019-03-15T12:03:53.851Z,14.80
2019-03-15T12:06:22.730Z,14.80
2019-03-15T12:08:51.452Z,14.90
2019-03-15T12:11:19.963Z,15.00
2019-03-15T12:13:48.278Z,15.10
2019-03-15T12:16:17.087Z,15.20
2019-03-15T12:18:45.455Z,15.20
2019-03-15T12:21:14.023Z,15.30
2019-03-15T12:23:42.740Z,15.20
2019-03-15T12:26:11.394Z,15.20
2019-03-15T12:28:39.880Z,15.10
2019-03-15T12:31:08.607Z,15.10
2019-03-15T12:33:36.959Z,15.00
2019-03-15T12:36:05.521Z,15.00
2019-03-15T12:38:34.620Z,15.00
2019-03-15T12:41:03.318Z,15.10
2019-03-15T12:43:32.003Z,15.10
2019-03-15T12:46:00.744Z,15.20
2019-03-15T12:48:29.344Z,15.20
2019-03-15T12:50:57.859Z,15.20
2019-03-15T12:53:27.241Z,15.30
2019-03-15T12:55:56.518Z,15.30
2019-03-15T12:58:25.043Z,15.30
2019-03-15T13:00:53.871Z,15.20
2019-03-15T13:03:28.720Z,15.10
2019-03-15T13:05:57.587Z,15.10
2019-03-15T13:08:26.246Z,15.00
2019-03-15T13:10:54.930Z,15.00
2019-03-15T13:13:23.861Z,15.00
2019-03-15T13:15:52.318Z,15.00
2019-03-15T13:18:20.972Z,15.00
2019-03-15T13:20:49.486Z,15.00
2019-03-15T13:23:18.395Z,15.00
2019-03-15T13:25:47.234Z,15.00
2019-03-15T13:28:15.754Z,15.00
2019-03-15T13:30:44.382Z,14.90
2019-03-15T13:33:20.189Z,14.90
2019-03-15T13:35:44.530Z,14.90
2019-03-15T13:38:13.315Z,14.90
2019-03-15T13:40:41.999Z,14.90
2019-03-15T13:43:11.207Z,14.90
2019-03-15T13:45:39.595Z,15.00
2019-03-15T13:48:08.672Z,14.90
2019-03-15T13:50:37.123Z,14.90
2019-03-15T13:53:06.106Z,14.80
2019-03-15T13:55:35.268Z,14.80
2019-03-15T13:58:03.771Z,14.90
2019-03-15T14:00:32.742Z,14.80
2019-03-15T14:03:01.217Z,14.80
2019-03-15T14:05:33.751Z,14.90
2019-03-15T14:08:11.566Z,14.80
2019-03-15T14:10:48.165Z,14.80
2019-03-15T14:13:04.952Z,14.80
2019-03-15T14:15:33.958Z,14.80
2019-03-15T14:18:02.775Z,14.80
2019-03-15T14:20:33.072Z,14.80
2019-03-15T14:23:03.161Z,14.80
2019-03-15T14:25:32.728Z,14.80
2019-03-15T14:28:02.401Z,14.80
2019-03-15T14:30:32.418Z,14.80
2019-03-15T14:33:01.247Z,14.80
2019-03-15T14:35:29.706Z,14.80
2019-03-15T14:37:58.363Z,14.80
2019-03-15T14:40:27.138Z,14.90
2019-03-15T14:42:55.660Z,14.90
2019-03-15T14:45:24.322Z,14.80
2019-03-15T14:47:52.889Z,14.80
2019-03-15T14:50:21.617Z,14.80
2019-03-15T14:52:50.260Z,14.80
2019-03-15T14:55:19.974Z,14.80
2019-03-15T14:57:53.581Z,14.70
2019-03-15T15:00:19.827Z,14.70
2019-03-15T15:02:48.298Z,14.60
2019-03-15T15:05:16.984Z,14.60
2019-03-15T15:07:46.671Z,14.60
2019-03-15T15:10:15.438Z,14.50
2019-03-15T15:12:44.276Z,14.50
2019-03-15T15:15:12.734Z,14.50
2019-03-15T15:17:41.105Z,14.50
2019-03-15T15:20:10.127Z,14.50
2019-03-15T15:22:38.825Z,14.60
2019-03-15T15:25:08.718Z,14.60
2019-03-15T15:27:37.214Z,14.60
2019-03-15T15:30:06.681Z,14.60
2019-03-15T15:32:34.942Z,14.60
2019-03-15T15:35:03.709Z,14.60
2019-03-15T15:37:32.329Z,14.60
2019-03-15T15:40:00.899Z,14.60
2019-03-15T15:42:29.944Z,14.60
2019-03-15T15:44:58.586Z,14.60
2019-03-15T15:47:27.282Z,14.70
2019-03-15T15:49:56.017Z,14.70
2019-03-15T15:52:24.659Z,14.70
2019-03-15T15:54:53.112Z,14.70
2019-03-15T15:57:21.845Z,14.70
2019-03-15T15:59:50.503Z,14.60
2019-03-15T16:02:19.187Z,14.60
2019-03-15T16:04:48.929Z,14.70
2019-03-15T16:07:17.577Z,14.70
2019-03-15T16:09:46.277Z,14.60
2019-03-15T16:12:14.808Z,14.60
2019-03-15T16:14:43.636Z,14.60
2019-03-15T16:17:12.124Z,14.70
2019-03-15T16:19:40.840Z,14.70
2019-03-15T16:22:09.491Z,14.60
2019-03-15T16:24:38.392Z,14.60
2019-03-15T16:27:06.813Z,14.50
2019-03-15T16:29:35.147Z,14.50
2019-03-15T16:32:03.826Z,14.40
2019-03-15T16:34:32.753Z,14.40
2019-03-15T16:37:01.100Z,14.40
2019-03-15T16:39:29.686Z,14.40
2019-03-15T16:41:58.859Z,14.30
2019-03-15T16:44:27.255Z,14.30
2019-03-15T16:46:56.956Z,14.30
2019-03-15T16:49:25.892Z,14.30
2019-03-15T16:51:54.533Z,14.30
2019-03-15T16:54:23.212Z,14.30
2019-03-15T16:56:51.959Z,14.30
2019-03-15T16:59:20.602Z,14.30
2019-03-15T17:01:49.278Z,14.20
2019-03-15T17:04:17.778Z,14.20
2019-03-15T17:06:46.446Z,14.20
2019-03-15T17:09:15.557Z,14.20
2019-03-15T17:11:44.274Z,14.10
2019-03-15T17:14:25.056Z,14.10
2019-03-15T17:16:43.453Z,14.00
2019-03-15T17:19:11.938Z,14.00
2019-03-15T17:21:56.686Z,13.90
2019-03-15T17:24:25.525Z,13.90
2019-03-15T17:26:54.970Z,13.90
2019-03-15T17:29:23.654Z,13.80
2019-03-15T17:31:53.220Z,13.80
2019-03-15T17:34:21.746Z,13.80
2019-03-15T17:36:50.543Z,13.70
2019-03-15T17:39:19.118Z,13.70
2019-03-15T17:41:48.201Z,13.70
2019-03-15T17:44:16.597Z,13.70
2019-03-15T17:46:45.152Z,13.70
2019-03-15T17:49:13.802Z,13.60
2019-03-15T17:51:42.246Z,13.60
2019-03-15T17:54:10.966Z,13.50
2019-03-15T17:56:39.407Z,13.50
2019-03-15T17:59:12.593Z,13.50
2019-03-15T18:01:38.366Z,13.50
2019-03-15T18:04:07.210Z,13.40
2019-03-15T18:06:35.723Z,13.40
2019-03-15T18:09:05.259Z,13.40
2019-03-15T18:11:33.781Z,13.30
2019-03-15T18:14:02.249Z,13.30
2019-03-15T18:16:30.809Z,13.30
2019-03-15T18:19:00.050Z,13.20
2019-03-15T18:21:28.711Z,13.20
2019-03-15T18:23:57.653Z,13.20
2019-03-15T18:26:26.750Z,13.10
2019-03-15T18:28:55.395Z,13.00
2019-03-15T18:31:24.625Z,13.00
2019-03-15T18:33:54.196Z,12.90
2019-03-15T18:36:23.387Z,12.90
2019-03-15T18:38:52.244Z,12.80
2019-03-15T18:41:21.350Z,12.80
2019-03-15T18:43:50.262Z,12.70
2019-03-15T18:46:19.987Z,12.70
2019-03-15T18:48:49.185Z,12.70
2019-03-15T18:51:17.587Z,12.70
2019-03-15T18:53:47.214Z,12.60
2019-03-15T18:56:15.847Z,12.60
2019-03-15T18:58:45.559Z,12.60
2019-03-15T19:01:14.892Z,12.60
2019-03-15T19:03:43.459Z,12.50
2019-03-15T19:06:12.245Z,12.50
2019-03-15T19:08:46.696Z,12.50
2019-03-15T19:11:15.473Z,12.50
2019-03-15T19:13:44.462Z,12.40
2019-03-15T19:16:20.041Z,12.40
2019-03-15T19:18:44.700Z,12.30
2019-03-15T19:21:13.111Z,12.30
2019-03-15T19:23:43.434Z,12.30
2019-03-15T19:26:12.159Z,12.20
2019-03-15T19:28:40.879Z,12.20
2019-03-15T19:31:09.528Z,12.20
2019-03-15T19:33:38.002Z,12.20
2019-03-15T19:36:06.763Z,12.20
2019-03-15T19:38:35.587Z,12.20
2019-03-15T19:41:04.612Z,12.20
2019-03-15T19:43:33.105Z,12.10
2019-03-15T19:46:01.836Z,12.10
2019-03-15T19:48:30.556Z,12.10
2019-03-15T19:50:59.064Z,12.00
2019-03-15T19:53:27.399Z,12.00
2019-03-15T19:55:58.391Z,12.00
2019-03-15T19:58:27.143Z,12.00
2019-03-15T20:00:56.021Z,11.90
2019-03-15T20:03:24.580Z,11.90
2019-03-15T20:05:53.406Z,11.90
2019-03-15T20:08:21.989Z,11.90
2019-03-15T20:10:50.727Z,11.90
2019-03-15T20:13:19.556Z,11.90
2019-03-15T20:15:55.509Z,11.80
2019-03-15T20:18:24.613Z,11.80
2019-03-15T20:20:53.272Z,11.80
2019-03-15T20:23:22.442Z,11.80
2019-03-15T20:25:51.082Z,11.80
2019-03-15T20:28:20.034Z,11.80
2019-03-15T20:30:52.257Z,11.70
2019-03-15T20:33:19.522Z,11.70
2019-03-15T20:35:48.050Z,11.70
2019-03-15T20:38:16.729Z,11.70
2019-03-15T20:40:45.897Z,11.70
2019-03-15T20:43:14.647Z,11.70
2019-03-15T20:45:44.701Z,11.70
2019-03-15T20:48:13.550Z,11.70
2019-03-15T20:50:47.095Z,11.70
2019-03-15T20:53:13.191Z,11.60
2019-03-15T20:55:42.213Z,11.60
2019-03-15T20:58:10.426Z,11.60
2019-03-15T21:00:38.991Z,11.60
2019-03-15T21:03:07.767Z,11.70
2019-03-15T21:05:36.359Z,11.60
2019-03-15T21:08:05.635Z,11.60
2019-03-15T21:10:34.377Z,11.60
2019-03-15T21:13:03.338Z,11.60
2019-03-15T21:15:32.541Z,11.60
2019-03-15T21:18:03.640Z,11.60
2019-03-15T21:20:32.166Z,11.60
2019-03-15T21:23:01.223Z,11.60
2019-03-15T21:25:29.982Z,11.60
2019-03-15T21:27:58.750Z,11.60
2019-03-15T21:30:27.527Z,11.60
2019-03-15T21:32:56.030Z,11.60
2019-03-15T21:35:24.385Z,11.60
2019-03-15T21:37:53.156Z,11.60
2019-03-15T21:40:21.788Z,11.60
2019-03-15T21:42:50.538Z,11.60
2019-03-15T21:45:19.862Z,11.60
2019-03-15T21:47:48.565Z,11.60
2019-03-15T21:50:16.910Z,11.50
2019-03-15T21:52:45.698Z,11.50
2019-03-15T21:55:14.425Z,11.50
2019-03-15T21:57:43.074Z,11.50
2019-03-15T22:00:12.853Z,11.50
2019-03-15T22:02:41.293Z,11.50
2019-03-15T22:05:10.666Z,11.40
2019-03-15T22:07:40.477Z,11.40
2019-03-15T22:10:09.654Z,11.40
2019-03-15T22:12:38.161Z,11.40
2019-03-15T22:15:07.394Z,11.40
2019-03-15T22:17:36.459Z,11.40
2019-03-15T22:20:07.178Z,11.40
2019-03-15T22:22:35.906Z,11.30
2019-03-15T22:25:04.827Z,11.30
2019-03-15T22:27:33.641Z,11.30
2019-03-15T22:30:02.357Z,11.30
2019-03-15T22:32:31.831Z,11.30
2019-03-15T22:35:00.407Z,11.30
2019-03-15T22:37:29.038Z,11.30
2019-03-15T22:39:57.679Z,11.30
2019-03-15T22:42:26.362Z,11.30
2019-03-15T22:44:55.092Z,11.30
2019-03-15T22:47:23.727Z,11.30
2019-03-15T22:49:52.426Z,11.30
2019-03-15T22:52:23.559Z,11.30
2019-03-15T22:54:52.458Z,11.30
2019-03-15T22:57:20.942Z,11.30
2019-03-15T22:59:49.341Z,11.30
2019-03-15T23:02:17.902Z,11.30
2019-03-15T23:04:46.585Z,11.30
2019-03-15T23:07:15.297Z,11.20
2019-03-15T23:09:43.752Z,11.20
2019-03-15T23:12:12.431Z,11.20
2019-03-15T23:14:40.730Z,11.20
2019-03-15T23:17:09.393Z,11.20
2019-03-15T23:19:44.166Z,11.20
2019-03-15T23:22:12.715Z,11.20
2019-03-15T23:24:41.387Z,11.20
2019-03-15T23:27:10.110Z,11.20
2019-03-15T23:29:38.754Z,11.20
2019-03-15T23:32:07.441Z,11.20
2019-03-15T23:34:35.986Z,11.20
2019-03-15T23:37:04.614Z,11.20
2019-03-15T23:39:33.293Z,11.10
2019-03-15T23:42:01.819Z,11.20
2019-03-15T23:44:30.463Z,11.10
2019-03-15T23:46:59.189Z,11.10
2019-03-15T23:49:27.670Z,11.10
2019-03-15T23:51:56.330Z,11.10
2019-03-15T23:54:24.913Z,11.10
2019-03-15T23:56:53.745Z,11.10
2019-03-15T23:59:22.373Z,11.10
